sensor_id;sensor_type;location;lat;lon;timestamp;temperature;humidity
326;DHT22;150;52.352;14.058;2023-08-30T00:01:42;17.50;49.30
326;DHT22;150;52.352;14.058;2023-08-30T00:04:11;17.50;49.20
326;DHT22;150;52.352;14.058;2023-08-30T00:06:38;17.50;48.90
326;DHT22;150;52.352;14.058;2023-08-30T00:09:05;17.50;49.10
326;DHT22;150;52.352;14.058;2023-08-30T00:11:32;17.50;49.00
326;DHT22;150;52.352;14.058;2023-08-30T00:14:03;17.60;48.90
326;DHT22;150;52.352;14.058;2023-08-30T00:16:30;17.60;49.00
326;DHT22;150;52.352;14.058;2023-08-30T00:18:59;17.60;48.60
326;DHT22;150;52.352;14.058;2023-08-30T00:21:26;17.60;48.60
326;DHT22;150;52.352;14.058;2023-08-30T00:23:53;17.70;48.50
326;DHT22;150;52.352;14.058;2023-08-30T00:26:20;17.70;48.30
326;DHT22;150;52.352;14.058;2023-08-30T00:28:46;17.70;48.30
326;DHT22;150;52.352;14.058;2023-08-30T00:31:13;17.60;47.90
326;DHT22;150;52.352;14.058;2023-08-30T00:33:40;17.70;48.00
326;DHT22;150;52.352;14.058;2023-08-30T00:36:08;17.60;48.00
326;DHT22;150;52.352;14.058;2023-08-30T00:38:34;17.60;48.00
326;DHT22;150;52.352;14.058;2023-08-30T00:41:04;17.60;48.20
326;DHT22;150;52.352;14.058;2023-08-30T00:43:30;17.60;48.30
326;DHT22;150;52.352;14.058;2023-08-30T00:45:57;17.60;48.30
326;DHT22;150;52.352;14.058;2023-08-30T00:48:24;17.60;48.30
326;DHT22;150;52.352;14.058;2023-08-30T00:50:50;17.60;48.30
326;DHT22;150;52.352;14.058;2023-08-30T00:53:19;17.70;48.40
326;DHT22;150;52.352;14.058;2023-08-30T00:55:46;17.60;48.10
326;DHT22;150;52.352;14.058;2023-08-30T00:58:12;17.60;48.20
326;DHT22;150;52.352;14.058;2023-08-30T01:00:39;17.70;48.30
326;DHT22;150;52.352;14.058;2023-08-30T01:03:06;17.70;48.60
326;DHT22;150;52.352;14.058;2023-08-30T01:05:33;17.70;48.50
326;DHT22;150;52.352;14.058;2023-08-30T01:08:00;17.70;48.60
326;DHT22;150;52.352;14.058;2023-08-30T01:10:38;17.70;48.30
326;DHT22;150;52.352;14.058;2023-08-30T01:13:09;17.70;48.10
326;DHT22;150;52.352;14.058;2023-08-30T01:15:38;17.70;48.20
326;DHT22;150;52.352;14.058;2023-08-30T01:18:05;17.70;48.30
326;DHT22;150;52.352;14.058;2023-08-30T01:20:35;17.60;48.20
326;DHT22;150;52.352;14.058;2023-08-30T01:23:06;17.60;48.20
326;DHT22;150;52.352;14.058;2023-08-30T01:25:45;17.70;48.10
326;DHT22;150;52.352;14.058;2023-08-30T01:28:16;17.70;48.00
326;DHT22;150;52.352;14.058;2023-08-30T01:30:45;17.70;47.80
326;DHT22;150;52.352;14.058;2023-08-30T01:33:14;17.70;47.60
326;DHT22;150;52.352;14.058;2023-08-30T01:35:41;17.70;47.40
326;DHT22;150;52.352;14.058;2023-08-30T01:38:10;17.60;47.60
326;DHT22;150;52.352;14.058;2023-08-30T01:40:39;17.70;47.90
326;DHT22;150;52.352;14.058;2023-08-30T01:43:08;17.60;47.80
326;DHT22;150;52.352;14.058;2023-08-30T01:45:40;17.60;47.70
326;DHT22;150;52.352;14.058;2023-08-30T01:48:09;17.50;47.70
326;DHT22;150;52.352;14.058;2023-08-30T01:50:37;17.40;48.30
326;DHT22;150;52.352;14.058;2023-08-30T01:53:05;17.30;48.10
326;DHT22;150;52.352;14.058;2023-08-30T01:55:32;17.30;48.40
326;DHT22;150;52.352;14.058;2023-08-30T01:57:59;17.40;48.80
326;DHT22;150;52.352;14.058;2023-08-30T02:00:25;17.20;48.80
326;DHT22;150;52.352;14.058;2023-08-30T02:02:56;17.20;49.10
326;DHT22;150;52.352;14.058;2023-08-30T02:05:23;17.30;49.40
326;DHT22;150;52.352;14.058;2023-08-30T02:07:56;17.30;49.30
326;DHT22;150;52.352;14.058;2023-08-30T02:10:31;17.30;49.50
326;DHT22;150;52.352;14.058;2023-08-30T02:12:59;17.30;48.90
326;DHT22;150;52.352;14.058;2023-08-30T02:15:29;17.30;49.30
326;DHT22;150;52.352;14.058;2023-08-30T02:17:58;17.40;49.30
326;DHT22;150;52.352;14.058;2023-08-30T02:20:26;17.30;48.70
326;DHT22;150;52.352;14.058;2023-08-30T02:22:53;17.20;48.50
326;DHT22;150;52.352;14.058;2023-08-30T02:25:21;17.30;48.70
326;DHT22;150;52.352;14.058;2023-08-30T02:27:49;17.20;48.80
326;DHT22;150;52.352;14.058;2023-08-30T02:30:16;17.30;49.00
326;DHT22;150;52.352;14.058;2023-08-30T02:32:42;17.30;48.70
326;DHT22;150;52.352;14.058;2023-08-30T02:35:14;17.30;49.00
326;DHT22;150;52.352;14.058;2023-08-30T02:37:44;17.20;48.60
326;DHT22;150;52.352;14.058;2023-08-30T02:43:02;17.20;49.40
326;DHT22;150;52.352;14.058;2023-08-30T02:45:29;17.10;49.30
326;DHT22;150;52.352;14.058;2023-08-30T02:47:58;16.90;49.20
326;DHT22;150;52.352;14.058;2023-08-30T02:50:26;16.90;50.00
326;DHT22;150;52.352;14.058;2023-08-30T02:52:52;16.90;50.80
326;DHT22;150;52.352;14.058;2023-08-30T02:55:24;16.80;50.90
326;DHT22;150;52.352;14.058;2023-08-30T02:57:51;17.00;51.50
326;DHT22;150;52.352;14.058;2023-08-30T03:00:17;17.00;51.10
326;DHT22;150;52.352;14.058;2023-08-30T03:02:44;17.10;51.40
326;DHT22;150;52.352;14.058;2023-08-30T03:05:11;17.10;51.20
326;DHT22;150;52.352;14.058;2023-08-30T03:07:39;17.20;50.90
326;DHT22;150;52.352;14.058;2023-08-30T03:10:09;17.20;50.60
326;DHT22;150;52.352;14.058;2023-08-30T03:12:36;17.20;50.10
326;DHT22;150;52.352;14.058;2023-08-30T03:15:03;17.20;50.40
326;DHT22;150;52.352;14.058;2023-08-30T03:17:30;17.20;50.00
326;DHT22;150;52.352;14.058;2023-08-30T03:19:57;17.20;50.90
326;DHT22;150;52.352;14.058;2023-08-30T03:22:24;17.30;50.60
326;DHT22;150;52.352;14.058;2023-08-30T03:24:52;17.30;50.40
326;DHT22;150;52.352;14.058;2023-08-30T03:27:22;17.30;49.50
326;DHT22;150;52.352;14.058;2023-08-30T03:29:48;17.30;49.50
326;DHT22;150;52.352;14.058;2023-08-30T03:32:17;17.30;49.70
326;DHT22;150;52.352;14.058;2023-08-30T03:34:45;17.30;50.40
326;DHT22;150;52.352;14.058;2023-08-30T03:37:13;17.30;50.30
326;DHT22;150;52.352;14.058;2023-08-30T03:39:40;17.30;50.70
326;DHT22;150;52.352;14.058;2023-08-30T03:42:09;17.20;50.50
326;DHT22;150;52.352;14.058;2023-08-30T03:44:37;17.30;50.70
326;DHT22;150;52.352;14.058;2023-08-30T03:47:04;17.40;50.80
326;DHT22;150;52.352;14.058;2023-08-30T03:49:34;17.30;50.30
326;DHT22;150;52.352;14.058;2023-08-30T03:52:01;17.40;50.60
326;DHT22;150;52.352;14.058;2023-08-30T03:54:27;17.40;50.20
326;DHT22;150;52.352;14.058;2023-08-30T03:56:54;17.40;50.40
326;DHT22;150;52.352;14.058;2023-08-30T03:59:22;17.50;50.70
326;DHT22;150;52.352;14.058;2023-08-30T04:01:50;17.40;50.30
326;DHT22;150;52.352;14.058;2023-08-30T04:04:17;17.40;50.00
326;DHT22;150;52.352;14.058;2023-08-30T04:06:44;17.50;49.90
326;DHT22;150;52.352;14.058;2023-08-30T04:09:10;17.50;49.70
326;DHT22;150;52.352;14.058;2023-08-30T04:11:37;17.50;50.00
326;DHT22;150;52.352;14.058;2023-08-30T04:14:04;17.50;49.70
326;DHT22;150;52.352;14.058;2023-08-30T04:16:31;17.50;49.70
326;DHT22;150;52.352;14.058;2023-08-30T04:18:58;17.40;49.60
326;DHT22;150;52.352;14.058;2023-08-30T04:21:25;17.30;49.50
326;DHT22;150;52.352;14.058;2023-08-30T04:24:00;17.40;49.60
326;DHT22;150;52.352;14.058;2023-08-30T04:26:29;17.40;50.10
326;DHT22;150;52.352;14.058;2023-08-30T04:28:55;17.40;50.30
326;DHT22;150;52.352;14.058;2023-08-30T04:31:22;17.40;49.90
326;DHT22;150;52.352;14.058;2023-08-30T04:33:56;17.40;50.40
326;DHT22;150;52.352;14.058;2023-08-30T04:36:26;17.40;50.60
326;DHT22;150;52.352;14.058;2023-08-30T04:38:58;17.40;50.30
326;DHT22;150;52.352;14.058;2023-08-30T04:41:45;17.40;50.00
326;DHT22;150;52.352;14.058;2023-08-30T04:44:12;17.50;50.20
326;DHT22;150;52.352;14.058;2023-08-30T04:46:39;17.50;50.00
326;DHT22;150;52.352;14.058;2023-08-30T04:49:07;17.50;50.00
326;DHT22;150;52.352;14.058;2023-08-30T04:51:36;17.50;50.20
326;DHT22;150;52.352;14.058;2023-08-30T04:54:03;17.40;49.60
326;DHT22;150;52.352;14.058;2023-08-30T04:56:32;17.50;50.30
326;DHT22;150;52.352;14.058;2023-08-30T04:59:22;17.50;50.50
326;DHT22;150;52.352;14.058;2023-08-30T05:01:52;17.50;50.60
326;DHT22;150;52.352;14.058;2023-08-30T05:04:26;17.60;50.60
326;DHT22;150;52.352;14.058;2023-08-30T05:07:06;17.40;50.20
326;DHT22;150;52.352;14.058;2023-08-30T05:09:47;17.60;50.40
326;DHT22;150;52.352;14.058;2023-08-30T05:12:28;17.60;50.00
326;DHT22;150;52.352;14.058;2023-08-30T05:15:18;17.60;49.80
326;DHT22;150;52.352;14.058;2023-08-30T05:17:57;17.40;50.40
326;DHT22;150;52.352;14.058;2023-08-30T05:20:28;17.60;50.30
326;DHT22;150;52.352;14.058;2023-08-30T05:23:08;17.60;50.50
326;DHT22;150;52.352;14.058;2023-08-30T05:25:41;17.60;50.60
326;DHT22;150;52.352;14.058;2023-08-30T05:28:11;17.60;50.20
326;DHT22;150;52.352;14.058;2023-08-30T05:30:44;17.60;50.00
326;DHT22;150;52.352;14.058;2023-08-30T05:33:22;17.60;49.80
326;DHT22;150;52.352;14.058;2023-08-30T05:35:53;17.40;49.60
326;DHT22;150;52.352;14.058;2023-08-30T05:38:23;17.40;50.40
326;DHT22;150;52.352;14.058;2023-08-30T05:40:49;17.40;50.10
326;DHT22;150;52.352;14.058;2023-08-30T05:43:16;17.40;50.90
326;DHT22;150;52.352;14.058;2023-08-30T05:45:43;17.50;50.70
326;DHT22;150;52.352;14.058;2023-08-30T05:48:10;17.50;51.00
326;DHT22;150;52.352;14.058;2023-08-30T05:50:36;17.50;50.70
326;DHT22;150;52.352;14.058;2023-08-30T05:53:05;17.50;50.70
326;DHT22;150;52.352;14.058;2023-08-30T05:55:31;17.50;51.00
326;DHT22;150;52.352;14.058;2023-08-30T05:57:58;17.50;50.80
326;DHT22;150;52.352;14.058;2023-08-30T06:00:26;17.60;50.70
326;DHT22;150;52.352;14.058;2023-08-30T06:02:53;17.60;50.80
326;DHT22;150;52.352;14.058;2023-08-30T06:05:19;17.60;50.70
326;DHT22;150;52.352;14.058;2023-08-30T06:07:46;17.60;51.10
326;DHT22;150;52.352;14.058;2023-08-30T06:10:14;17.60;50.90
326;DHT22;150;52.352;14.058;2023-08-30T06:12:40;17.60;50.40
326;DHT22;150;52.352;14.058;2023-08-30T06:15:08;17.70;50.50
326;DHT22;150;52.352;14.058;2023-08-30T06:17:34;17.70;50.20
326;DHT22;150;52.352;14.058;2023-08-30T06:20:01;17.80;50.40
326;DHT22;150;52.352;14.058;2023-08-30T06:22:28;17.70;49.90
326;DHT22;150;52.352;14.058;2023-08-30T06:24:55;17.70;49.90
326;DHT22;150;52.352;14.058;2023-08-30T06:27:23;17.70;49.90
326;DHT22;150;52.352;14.058;2023-08-30T06:29:50;17.80;50.00
326;DHT22;150;52.352;14.058;2023-08-30T06:32:17;17.80;50.00
326;DHT22;150;52.352;14.058;2023-08-30T06:34:43;17.80;50.00
326;DHT22;150;52.352;14.058;2023-08-30T06:37:10;17.90;50.10
326;DHT22;150;52.352;14.058;2023-08-30T06:39:39;17.90;50.00
326;DHT22;150;52.352;14.058;2023-08-30T06:42:06;17.90;49.30
326;DHT22;150;52.352;14.058;2023-08-30T06:44:34;17.90;49.30
326;DHT22;150;52.352;14.058;2023-08-30T06:47:04;18.00;50.00
326;DHT22;150;52.352;14.058;2023-08-30T06:49:30;18.10;50.20
326;DHT22;150;52.352;14.058;2023-08-30T06:52:00;18.10;50.20
326;DHT22;150;52.352;14.058;2023-08-30T06:54:28;18.20;49.90
326;DHT22;150;52.352;14.058;2023-08-30T06:56:59;18.30;49.20
326;DHT22;150;52.352;14.058;2023-08-30T06:59:26;18.40;49.00
326;DHT22;150;52.352;14.058;2023-08-30T07:01:54;18.40;48.80
326;DHT22;150;52.352;14.058;2023-08-30T07:04:21;18.40;49.20
326;DHT22;150;52.352;14.058;2023-08-30T07:06:48;18.60;49.40
326;DHT22;150;52.352;14.058;2023-08-30T07:09:14;18.60;48.80
326;DHT22;150;52.352;14.058;2023-08-30T07:11:42;18.60;48.20
326;DHT22;150;52.352;14.058;2023-08-30T07:14:10;18.60;48.20
326;DHT22;150;52.352;14.058;2023-08-30T07:16:38;18.60;47.90
326;DHT22;150;52.352;14.058;2023-08-30T07:19:06;18.60;47.20
326;DHT22;150;52.352;14.058;2023-08-30T07:21:33;18.60;47.30
326;DHT22;150;52.352;14.058;2023-08-30T07:24:01;18.50;48.00
326;DHT22;150;52.352;14.058;2023-08-30T07:26:28;18.70;47.70
326;DHT22;150;52.352;14.058;2023-08-30T07:28:54;18.70;47.50
326;DHT22;150;52.352;14.058;2023-08-30T07:31:21;18.70;47.20
326;DHT22;150;52.352;14.058;2023-08-30T07:33:49;18.70;47.90
326;DHT22;150;52.352;14.058;2023-08-30T07:36:17;18.80;47.30
326;DHT22;150;52.352;14.058;2023-08-30T07:38:43;18.80;47.00
326;DHT22;150;52.352;14.058;2023-08-30T07:41:10;18.90;48.00
326;DHT22;150;52.352;14.058;2023-08-30T07:43:36;18.90;47.40
326;DHT22;150;52.352;14.058;2023-08-30T07:46:03;18.90;47.00
326;DHT22;150;52.352;14.058;2023-08-30T07:48:30;18.90;47.00
326;DHT22;150;52.352;14.058;2023-08-30T07:50:56;19.00;47.10
326;DHT22;150;52.352;14.058;2023-08-30T07:53:24;19.10;47.20
326;DHT22;150;52.352;14.058;2023-08-30T07:55:51;19.10;46.50
326;DHT22;150;52.352;14.058;2023-08-30T07:58:18;19.10;46.00
326;DHT22;150;52.352;14.058;2023-08-30T08:00:50;19.10;45.90
326;DHT22;150;52.352;14.058;2023-08-30T08:03:17;19.20;45.50
326;DHT22;150;52.352;14.058;2023-08-30T08:05:44;19.20;45.40
326;DHT22;150;52.352;14.058;2023-08-30T08:08:14;19.30;45.10
326;DHT22;150;52.352;14.058;2023-08-30T08:10:43;19.30;45.00
326;DHT22;150;52.352;14.058;2023-08-30T08:13:09;19.30;44.70
326;DHT22;150;52.352;14.058;2023-08-30T08:15:38;19.40;44.20
326;DHT22;150;52.352;14.058;2023-08-30T08:18:04;19.40;44.60
326;DHT22;150;52.352;14.058;2023-08-30T08:20:32;19.40;45.10
326;DHT22;150;52.352;14.058;2023-08-30T08:22:58;19.50;45.00
326;DHT22;150;52.352;14.058;2023-08-30T08:25:25;19.50;44.70
326;DHT22;150;52.352;14.058;2023-08-30T08:27:54;19.50;45.10
326;DHT22;150;52.352;14.058;2023-08-30T08:30:21;19.60;44.50
326;DHT22;150;52.352;14.058;2023-08-30T08:32:48;19.60;43.30
326;DHT22;150;52.352;14.058;2023-08-30T08:35:15;19.60;43.40
326;DHT22;150;52.352;14.058;2023-08-30T08:37:42;19.80;43.90
326;DHT22;150;52.352;14.058;2023-08-30T08:40:09;19.90;43.40
326;DHT22;150;52.352;14.058;2023-08-30T08:42:36;20.00;42.80
326;DHT22;150;52.352;14.058;2023-08-30T08:45:05;20.10;42.60
326;DHT22;150;52.352;14.058;2023-08-30T08:47:33;20.20;41.50
326;DHT22;150;52.352;14.058;2023-08-30T08:50:00;20.20;41.50
326;DHT22;150;52.352;14.058;2023-08-30T08:52:29;20.40;41.70
326;DHT22;150;52.352;14.058;2023-08-30T08:54:56;20.60;41.80
326;DHT22;150;52.352;14.058;2023-08-30T08:57:29;20.50;39.30
326;DHT22;150;52.352;14.058;2023-08-30T09:00:08;20.60;40.20
326;DHT22;150;52.352;14.058;2023-08-30T09:02:35;20.80;40.30
326;DHT22;150;52.352;14.058;2023-08-30T09:05:02;20.80;38.60
326;DHT22;150;52.352;14.058;2023-08-30T09:07:31;20.70;38.30
326;DHT22;150;52.352;14.058;2023-08-30T09:09:58;20.80;39.60
326;DHT22;150;52.352;14.058;2023-08-30T09:12:25;20.70;36.40
326;DHT22;150;52.352;14.058;2023-08-30T09:14:55;20.70;36.60
326;DHT22;150;52.352;14.058;2023-08-30T09:17:34;20.90;37.40
326;DHT22;150;52.352;14.058;2023-08-30T09:20:06;20.80;37.50
326;DHT22;150;52.352;14.058;2023-08-30T09:22:36;21.00;37.30
326;DHT22;150;52.352;14.058;2023-08-30T09:25:03;21.00;36.90
326;DHT22;150;52.352;14.058;2023-08-30T09:27:33;21.10;35.80
326;DHT22;150;52.352;14.058;2023-08-30T09:30:00;21.20;35.30
326;DHT22;150;52.352;14.058;2023-08-30T09:32:28;21.30;34.00
326;DHT22;150;52.352;14.058;2023-08-30T09:34:55;21.30;33.50
326;DHT22;150;52.352;14.058;2023-08-30T09:37:22;21.30;34.10
326;DHT22;150;52.352;14.058;2023-08-30T09:39:49;21.40;33.80
326;DHT22;150;52.352;14.058;2023-08-30T09:42:16;21.40;33.10
326;DHT22;150;52.352;14.058;2023-08-30T09:44:44;21.40;33.90
326;DHT22;150;52.352;14.058;2023-08-30T09:47:13;21.50;33.40
326;DHT22;150;52.352;14.058;2023-08-30T09:49:43;21.60;33.40
326;DHT22;150;52.352;14.058;2023-08-30T09:52:12;21.70;33.00
326;DHT22;150;52.352;14.058;2023-08-30T09:54:41;21.70;31.80
326;DHT22;150;52.352;14.058;2023-08-30T09:57:09;21.80;31.90
326;DHT22;150;52.352;14.058;2023-08-30T09:59:36;21.80;31.90
326;DHT22;150;52.352;14.058;2023-08-30T10:02:04;21.90;30.20
326;DHT22;150;52.352;14.058;2023-08-30T10:04:32;21.90;30.60
326;DHT22;150;52.352;14.058;2023-08-30T10:07:03;22.00;31.20
326;DHT22;150;52.352;14.058;2023-08-30T10:09:31;22.10;31.60
326;DHT22;150;52.352;14.058;2023-08-30T10:12:02;22.20;31.50
326;DHT22;150;52.352;14.058;2023-08-30T10:14:29;22.20;29.80
326;DHT22;150;52.352;14.058;2023-08-30T10:17:01;22.30;29.30
326;DHT22;150;52.352;14.058;2023-08-30T10:19:29;22.30;29.00
326;DHT22;150;52.352;14.058;2023-08-30T10:22:00;22.20;29.30
326;DHT22;150;52.352;14.058;2023-08-30T10:24:35;22.30;29.10
326;DHT22;150;52.352;14.058;2023-08-30T10:27:05;22.30;27.40
326;DHT22;150;52.352;14.058;2023-08-30T10:29:33;22.30;27.80
326;DHT22;150;52.352;14.058;2023-08-30T10:32:04;22.30;27.20
326;DHT22;150;52.352;14.058;2023-08-30T10:34:35;22.20;28.70
326;DHT22;150;52.352;14.058;2023-08-30T10:37:03;22.20;26.90
326;DHT22;150;52.352;14.058;2023-08-30T10:39:37;21.90;27.40
326;DHT22;150;52.352;14.058;2023-08-30T10:42:08;21.90;28.40
326;DHT22;150;52.352;14.058;2023-08-30T10:44:46;21.90;28.80
326;DHT22;150;52.352;14.058;2023-08-30T10:47:18;21.80;28.20
326;DHT22;150;52.352;14.058;2023-08-30T10:49:46;21.90;28.20
326;DHT22;150;52.352;14.058;2023-08-30T10:52:13;21.90;28.20
326;DHT22;150;52.352;14.058;2023-08-30T10:54:41;22.00;28.80
326;DHT22;150;52.352;14.058;2023-08-30T10:57:13;22.10;29.10
326;DHT22;150;52.352;14.058;2023-08-30T10:59:40;22.20;27.30
326;DHT22;150;52.352;14.058;2023-08-30T11:02:07;22.20;27.40
326;DHT22;150;52.352;14.058;2023-08-30T11:04:39;22.20;27.50
326;DHT22;150;52.352;14.058;2023-08-30T11:07:07;22.30;28.50
326;DHT22;150;52.352;14.058;2023-08-30T11:09:36;22.30;27.30
326;DHT22;150;52.352;14.058;2023-08-30T11:12:06;22.50;27.30
326;DHT22;150;52.352;14.058;2023-08-30T11:14:32;22.50;26.80
326;DHT22;150;52.352;14.058;2023-08-30T11:16:59;22.60;26.20
326;DHT22;150;52.352;14.058;2023-08-30T11:19:29;22.70;27.30
326;DHT22;150;52.352;14.058;2023-08-30T11:21:56;22.70;26.30
326;DHT22;150;52.352;14.058;2023-08-30T11:24:23;22.80;25.30
326;DHT22;150;52.352;14.058;2023-08-30T11:26:52;22.90;25.50
326;DHT22;150;52.352;14.058;2023-08-30T11:29:21;22.90;24.90
326;DHT22;150;52.352;14.058;2023-08-30T11:31:49;22.90;25.10
326;DHT22;150;52.352;14.058;2023-08-30T11:34:19;22.80;24.30
326;DHT22;150;52.352;14.058;2023-08-30T11:36:46;22.80;25.10
326;DHT22;150;52.352;14.058;2023-08-30T11:39:13;22.80;24.00
326;DHT22;150;52.352;14.058;2023-08-30T11:41:40;22.80;24.00
326;DHT22;150;52.352;14.058;2023-08-30T11:44:08;22.90;24.50
326;DHT22;150;52.352;14.058;2023-08-30T11:46:36;23.00;24.60
326;DHT22;150;52.352;14.058;2023-08-30T11:49:03;23.10;23.70
326;DHT22;150;52.352;14.058;2023-08-30T11:51:33;23.10;24.80
326;DHT22;150;52.352;14.058;2023-08-30T11:54:00;23.20;25.60
326;DHT22;150;52.352;14.058;2023-08-30T11:56:29;23.20;23.80
326;DHT22;150;52.352;14.058;2023-08-30T11:58:56;23.30;23.80
326;DHT22;150;52.352;14.058;2023-08-30T12:01:23;23.40;23.30
326;DHT22;150;52.352;14.058;2023-08-30T12:03:51;23.50;23.30
326;DHT22;150;52.352;14.058;2023-08-30T12:06:17;23.60;24.40
326;DHT22;150;52.352;14.058;2023-08-30T12:08:44;23.70;24.10
326;DHT22;150;52.352;14.058;2023-08-30T12:11:18;23.70;23.10
326;DHT22;150;52.352;14.058;2023-08-30T12:13:45;23.70;22.20
326;DHT22;150;52.352;14.058;2023-08-30T12:16:15;23.70;21.00
326;DHT22;150;52.352;14.058;2023-08-30T12:18:42;23.70;21.00
326;DHT22;150;52.352;14.058;2023-08-30T12:21:10;23.60;20.80
326;DHT22;150;52.352;14.058;2023-08-30T12:23:39;23.60;21.30
326;DHT22;150;52.352;14.058;2023-08-30T12:26:06;23.70;22.40
326;DHT22;150;52.352;14.058;2023-08-30T12:28:35;23.70;21.00
326;DHT22;150;52.352;14.058;2023-08-30T12:31:03;23.70;22.00
326;DHT22;150;52.352;14.058;2023-08-30T12:33:30;23.60;21.70
326;DHT22;150;52.352;14.058;2023-08-30T12:35:58;23.60;20.30
326;DHT22;150;52.352;14.058;2023-08-30T12:38:26;23.50;20.90
326;DHT22;150;52.352;14.058;2023-08-30T12:40:53;23.50;21.00
326;DHT22;150;52.352;14.058;2023-08-30T12:43:21;23.50;22.10
326;DHT22;150;52.352;14.058;2023-08-30T12:45:48;23.60;21.90
326;DHT22;150;52.352;14.058;2023-08-30T12:48:16;23.40;21.10
326;DHT22;150;52.352;14.058;2023-08-30T12:50:44;23.30;21.30
326;DHT22;150;52.352;14.058;2023-08-30T12:53:12;23.30;20.80
326;DHT22;150;52.352;14.058;2023-08-30T12:55:40;23.20;21.20
326;DHT22;150;52.352;14.058;2023-08-30T12:58:07;23.10;21.50
326;DHT22;150;52.352;14.058;2023-08-30T13:00:34;23.20;21.90
326;DHT22;150;52.352;14.058;2023-08-30T13:03:01;23.00;20.60
326;DHT22;150;52.352;14.058;2023-08-30T13:05:29;23.10;20.20
326;DHT22;150;52.352;14.058;2023-08-30T13:07:56;23.10;20.70
326;DHT22;150;52.352;14.058;2023-08-30T13:10:22;23.10;20.30
326;DHT22;150;52.352;14.058;2023-08-30T13:12:50;23.20;20.80
326;DHT22;150;52.352;14.058;2023-08-30T13:15:17;23.10;20.60
326;DHT22;150;52.352;14.058;2023-08-30T13:17:44;23.10;20.80
326;DHT22;150;52.352;14.058;2023-08-30T13:20:10;23.00;21.50
326;DHT22;150;52.352;14.058;2023-08-30T13:22:37;23.00;21.50
326;DHT22;150;52.352;14.058;2023-08-30T13:25:04;22.90;21.40
326;DHT22;150;52.352;14.058;2023-08-30T13:27:31;22.70;21.60
326;DHT22;150;52.352;14.058;2023-08-30T13:29:59;22.60;21.80
326;DHT22;150;52.352;14.058;2023-08-30T13:32:26;22.60;22.40
326;DHT22;150;52.352;14.058;2023-08-30T13:34:52;22.60;22.80
326;DHT22;150;52.352;14.058;2023-08-30T13:37:19;22.50;22.80
326;DHT22;150;52.352;14.058;2023-08-30T13:39:46;22.50;23.30
326;DHT22;150;52.352;14.058;2023-08-30T13:42:12;22.50;23.30
326;DHT22;150;52.352;14.058;2023-08-30T13:44:39;22.40;23.20
326;DHT22;150;52.352;14.058;2023-08-30T13:47:09;22.40;23.20
326;DHT22;150;52.352;14.058;2023-08-30T13:49:36;22.50;23.30
326;DHT22;150;52.352;14.058;2023-08-30T13:52:03;22.50;23.80
326;DHT22;150;52.352;14.058;2023-08-30T13:54:29;22.40;23.20
326;DHT22;150;52.352;14.058;2023-08-30T13:56:57;22.40;23.70
326;DHT22;150;52.352;14.058;2023-08-30T13:59:24;22.30;23.70
326;DHT22;150;52.352;14.058;2023-08-30T14:01:51;22.40;24.30
326;DHT22;150;52.352;14.058;2023-08-30T14:04:19;22.30;24.10
326;DHT22;150;52.352;14.058;2023-08-30T14:06:45;22.30;24.00
326;DHT22;150;52.352;14.058;2023-08-30T14:09:12;22.40;23.70
326;DHT22;150;52.352;14.058;2023-08-30T14:11:39;22.30;23.10
326;DHT22;150;52.352;14.058;2023-08-30T14:14:07;22.20;23.10
326;DHT22;150;52.352;14.058;2023-08-30T14:16:34;22.10;23.60
326;DHT22;150;52.352;14.058;2023-08-30T14:19:02;22.20;24.00
326;DHT22;150;52.352;14.058;2023-08-30T14:21:32;22.10;24.40
326;DHT22;150;52.352;14.058;2023-08-30T14:23:59;22.20;24.50
326;DHT22;150;52.352;14.058;2023-08-30T14:26:27;22.30;25.10
326;DHT22;150;52.352;14.058;2023-08-30T14:28:54;22.40;24.80
326;DHT22;150;52.352;14.058;2023-08-30T14:31:20;22.40;24.50
326;DHT22;150;52.352;14.058;2023-08-30T14:33:47;22.30;23.70
326;DHT22;150;52.352;14.058;2023-08-30T14:36:14;22.30;23.90
326;DHT22;150;52.352;14.058;2023-08-30T14:38:42;22.30;24.60
326;DHT22;150;52.352;14.058;2023-08-30T14:41:09;22.40;24.40
326;DHT22;150;52.352;14.058;2023-08-30T14:43:35;22.30;24.60
326;DHT22;150;52.352;14.058;2023-08-30T14:46:03;22.30;24.60
326;DHT22;150;52.352;14.058;2023-08-30T14:48:31;22.10;24.70
326;DHT22;150;52.352;14.058;2023-08-30T14:51:08;22.20;25.00
326;DHT22;150;52.352;14.058;2023-08-30T14:53:35;22.10;25.30
326;DHT22;150;52.352;14.058;2023-08-30T14:56:04;22.10;25.50
326;DHT22;150;52.352;14.058;2023-08-30T14:58:32;22.20;25.10
326;DHT22;150;52.352;14.058;2023-08-30T15:00:59;22.20;25.70
326;DHT22;150;52.352;14.058;2023-08-30T15:03:26;22.20;25.70
326;DHT22;150;52.352;14.058;2023-08-30T15:05:54;22.20;25.80
326;DHT22;150;52.352;14.058;2023-08-30T15:08:20;22.30;25.90
326;DHT22;150;52.352;14.058;2023-08-30T15:10:47;22.30;25.70
326;DHT22;150;52.352;14.058;2023-08-30T15:13:15;22.20;25.80
326;DHT22;150;52.352;14.058;2023-08-30T15:15:42;22.20;25.80
326;DHT22;150;52.352;14.058;2023-08-30T15:18:08;22.10;25.60
326;DHT22;150;52.352;14.058;2023-08-30T15:20:36;22.10;25.70
326;DHT22;150;52.352;14.058;2023-08-30T15:23:03;22.20;26.00
326;DHT22;150;52.352;14.058;2023-08-30T15:25:29;22.20;25.90
326;DHT22;150;52.352;14.058;2023-08-30T15:27:56;22.20;25.50
326;DHT22;150;52.352;14.058;2023-08-30T15:30:24;22.20;25.90
326;DHT22;150;52.352;14.058;2023-08-30T15:32:51;22.20;26.00
326;DHT22;150;52.352;14.058;2023-08-30T15:35:18;22.00;26.20
326;DHT22;150;52.352;14.058;2023-08-30T15:37:44;22.00;26.70
326;DHT22;150;52.352;14.058;2023-08-30T15:40:11;22.10;26.80
326;DHT22;150;52.352;14.058;2023-08-30T15:42:40;22.10;27.00
326;DHT22;150;52.352;14.058;2023-08-30T15:45:09;22.00;27.30
326;DHT22;150;52.352;14.058;2023-08-30T15:47:37;22.00;27.40
326;DHT22;150;52.352;14.058;2023-08-30T15:50:05;22.00;27.20
326;DHT22;150;52.352;14.058;2023-08-30T15:52:31;22.00;27.20
326;DHT22;150;52.352;14.058;2023-08-30T15:54:58;21.90;27.20
326;DHT22;150;52.352;14.058;2023-08-30T15:57:25;21.90;27.50
326;DHT22;150;52.352;14.058;2023-08-30T15:59:52;21.80;27.50
326;DHT22;150;52.352;14.058;2023-08-30T16:02:18;21.80;27.60
326;DHT22;150;52.352;14.058;2023-08-30T16:04:46;21.70;27.50
326;DHT22;150;52.352;14.058;2023-08-30T16:07:13;21.70;28.00
326;DHT22;150;52.352;14.058;2023-08-30T16:09:39;21.70;27.80
326;DHT22;150;52.352;14.058;2023-08-30T16:12:13;21.70;28.00
326;DHT22;150;52.352;14.058;2023-08-30T16:14:40;21.70;28.10
326;DHT22;150;52.352;14.058;2023-08-30T16:17:06;21.60;28.30
326;DHT22;150;52.352;14.058;2023-08-30T16:19:33;21.50;28.10
326;DHT22;150;52.352;14.058;2023-08-30T16:22:02;21.60;28.40
326;DHT22;150;52.352;14.058;2023-08-30T16:24:29;21.60;28.70
326;DHT22;150;52.352;14.058;2023-08-30T16:26:57;21.50;29.10